createdAt,value
2022-09-24T04:00:28.880Z,0.00
2022-09-24T04:01:26.884Z,0.00
2022-09-24T04:02:26.828Z,0.00
2022-09-24T04:03:26.815Z,0.00
2022-09-24T04:04:26.786Z,0.00
2022-09-24T04:05:26.833Z,0.00
2022-09-24T04:06:26.765Z,0.00
2022-09-24T04:07:26.762Z,0.00
2022-09-24T04:08:26.754Z,0.00
2022-09-24T04:09:26.732Z,0.00
2022-09-24T04:10:26.734Z,0.00
2022-09-24T04:11:31.738Z,0.00
2022-09-24T04:12:26.763Z,0.00
2022-09-24T04:13:26.689Z,0.00
2022-09-24T04:14:26.692Z,0.00
2022-09-24T04:15:26.680Z,0.00
2022-09-24T04:16:26.724Z,0.00
2022-09-24T04:17:26.674Z,0.00
2022-09-24T04:18:26.765Z,0.00
2022-09-24T04:19:26.620Z,0.00
2022-09-24T04:20:26.623Z,0.00
2022-09-24T04:21:26.599Z,0.00
2022-09-24T04:22:31.612Z,0.00
2022-09-24T04:23:26.593Z,0.00
2022-09-24T04:24:26.565Z,0.00
2022-09-24T04:25:26.568Z,0.00
2022-09-24T04:26:26.579Z,0.00
2022-09-24T04:27:26.530Z,0.00
2022-09-24T04:28:26.527Z,0.00
2022-09-24T04:29:26.507Z,0.00
2022-09-24T04:30:26.511Z,0.00
2022-09-24T04:31:26.575Z,0.00
2022-09-24T04:32:26.498Z,0.00
2022-09-24T04:33:31.491Z,0.00
2022-09-24T04:34:26.455Z,0.00
2022-09-24T04:35:26.456Z,0.00
2022-09-24T04:36:26.427Z,0.00
2022-09-24T04:37:26.420Z,0.00
2022-09-24T04:38:26.407Z,0.00
2022-09-24T04:39:26.395Z,0.00
2022-09-24T04:40:26.404Z,0.00
2022-09-24T04:41:26.389Z,0.00
2022-09-24T04:42:26.378Z,0.00
2022-09-24T04:43:26.355Z,0.00
2022-09-24T04:44:31.363Z,0.00
2022-09-24T04:45:26.329Z,0.00
2022-09-24T04:46:26.380Z,0.00
2022-09-24T04:47:26.333Z,0.00
2022-09-24T04:48:26.343Z,0.00
2022-09-24T04:49:26.290Z,0.00
2022-09-24T04:50:26.278Z,0.00
2022-09-24T04:51:26.277Z,0.00
2022-09-24T04:52:26.260Z,0.00
2022-09-24T04:53:26.239Z,0.00
2022-09-24T04:54:26.226Z,4.00
2022-09-24T04:55:31.251Z,4.00
2022-09-24T04:56:26.210Z,0.00
2022-09-24T04:57:26.198Z,4.00
2022-09-24T04:58:26.197Z,4.00
2022-09-24T04:59:26.176Z,4.00
2022-09-24T05:00:26.177Z,8.00
2022-09-24T05:01:26.192Z,8.00
2022-09-24T05:02:26.226Z,8.00
2022-09-24T05:03:26.158Z,8.00
2022-09-24T05:04:26.221Z,12.00
2022-09-24T05:05:26.104Z,12.00
2022-09-24T05:06:31.125Z,16.00
2022-09-24T05:07:26.082Z,16.00
2022-09-24T05:08:26.076Z,16.00
2022-09-24T05:09:26.066Z,20.00
2022-09-24T05:10:26.058Z,24.00
2022-09-24T05:11:26.050Z,24.00
2022-09-24T05:12:26.029Z,28.00
2022-09-24T05:13:26.023Z,32.00
2022-09-24T05:14:26.008Z,36.00
2022-09-24T05:15:25.997Z,40.00
2022-09-24T05:16:26.060Z,40.00
2022-09-24T05:17:31.067Z,44.00
2022-09-24T05:18:25.957Z,48.00
2022-09-24T05:19:25.951Z,56.00
2022-09-24T05:20:25.975Z,56.00
2022-09-24T05:21:25.955Z,64.00
2022-09-24T05:22:25.933Z,68.00
2022-09-24T05:23:25.906Z,72.00
2022-09-24T05:24:25.890Z,76.00
2022-09-24T05:25:25.881Z,80.00
2022-09-24T05:26:25.909Z,88.00
2022-09-24T05:27:25.858Z,96.00
2022-09-24T05:28:30.868Z,100.00
2022-09-24T05:29:25.845Z,108.00
2022-09-24T05:30:25.826Z,116.00
2022-09-24T05:31:25.883Z,140.00
2022-09-24T05:32:25.809Z,144.00
2022-09-24T05:33:25.793Z,148.00
2022-09-24T05:34:25.780Z,168.00
2022-09-24T05:35:25.770Z,180.00
2022-09-24T05:36:25.794Z,196.00
2022-09-24T05:37:25.778Z,216.00
2022-09-24T05:38:25.741Z,232.00
2022-09-24T05:39:33.899Z,236.00
2022-09-24T05:40:25.766Z,228.00
2022-09-24T05:41:25.714Z,236.00
2022-09-24T05:42:25.709Z,244.00
2022-09-24T05:43:25.685Z,264.00
2022-09-24T05:44:25.668Z,280.00
2022-09-24T05:45:25.658Z,288.00
2022-09-24T05:46:25.716Z,296.00
2022-09-24T05:47:25.656Z,300.00
2022-09-24T05:48:25.629Z,292.00
2022-09-24T05:49:25.617Z,276.00
2022-09-24T05:50:30.628Z,288.00
2022-09-24T05:51:25.601Z,304.00
2022-09-24T05:52:25.683Z,316.00
2022-09-24T05:53:25.570Z,336.00
2022-09-24T05:54:25.555Z,348.00
2022-09-24T05:55:30.055Z,384.00
2022-09-24T05:56:26.558Z,412.00
2022-09-24T05:57:25.523Z,440.00
2022-09-24T05:58:25.530Z,444.00
2022-09-24T05:59:25.500Z,464.00
2022-09-24T06:00:25.492Z,508.00
2022-09-24T06:01:30.598Z,512.00
2022-09-24T06:02:25.515Z,552.00
2022-09-24T06:03:25.523Z,612.00
2022-09-24T06:04:25.446Z,640.00
2022-09-24T06:05:25.435Z,664.00
2022-09-24T06:06:25.431Z,652.00
2022-09-24T06:07:25.412Z,616.00
2022-09-24T06:08:25.417Z,604.00
2022-09-24T06:09:25.390Z,632.00
2022-09-24T06:10:25.383Z,660.00
2022-09-24T06:11:25.393Z,684.00
2022-09-24T06:12:30.401Z,676.00
2022-09-24T06:13:25.343Z,652.00
2022-09-24T06:14:25.332Z,676.00
2022-09-24T06:15:25.324Z,744.00
2022-09-24T06:16:25.409Z,752.00
2022-09-24T06:17:25.299Z,720.00
2022-09-24T06:18:25.291Z,724.00
2022-09-24T06:19:25.274Z,740.00
2022-09-24T06:20:25.265Z,748.00
2022-09-24T06:21:25.286Z,740.00
2022-09-24T06:22:28.545Z,712.00
2022-09-24T06:23:30.272Z,696.00
2022-09-24T06:24:25.220Z,716.00
2022-09-24T06:25:25.209Z,748.00
2022-09-24T06:26:25.206Z,764.00
2022-09-24T06:27:25.187Z,788.00
2022-09-24T06:28:25.175Z,792.00
2022-09-24T06:29:25.162Z,768.00
2022-09-24T06:30:25.153Z,728.00
2022-09-24T06:31:25.204Z,744.00
2022-09-24T06:32:25.130Z,764.00
2022-09-24T06:33:25.121Z,804.00
2022-09-24T06:34:30.131Z,856.00
2022-09-24T06:35:25.096Z,904.00
2022-09-24T06:36:25.098Z,940.00
2022-09-24T06:37:25.071Z,964.00
2022-09-24T06:38:25.068Z,984.00
2022-09-24T06:39:25.069Z,1044.00
2022-09-24T06:40:25.118Z,1096.00
2022-09-24T06:41:25.037Z,1156.00
2022-09-24T06:42:25.016Z,1256.00
2022-09-24T06:43:25.005Z,1404.00
2022-09-24T06:44:24.997Z,1628.00
2022-09-24T06:45:30.006Z,1900.00
2022-09-24T06:46:25.005Z,2076.00
2022-09-24T06:47:24.971Z,2136.00
2022-09-24T06:48:24.951Z,2152.00
2022-09-24T06:49:26.331Z,2120.00
2022-09-24T06:50:24.949Z,2028.00
2022-09-24T06:51:24.936Z,1940.00
2022-09-24T06:52:24.908Z,1756.00
2022-09-24T06:53:24.951Z,1544.00
2022-09-24T06:54:24.893Z,1404.00
2022-09-24T06:55:24.973Z,1344.00
2022-09-24T06:56:29.904Z,1248.00
2022-09-24T06:57:28.772Z,1148.00
2022-09-24T06:58:24.840Z,1068.00
2022-09-24T06:59:24.826Z,1000.00
2022-09-24T07:00:24.899Z,964.00
2022-09-24T07:01:24.924Z,952.00
2022-09-24T07:02:24.875Z,944.00
2022-09-24T07:03:24.791Z,916.00
2022-09-24T07:04:24.773Z,908.00
2022-09-24T07:05:24.770Z,904.00
2022-09-24T07:06:24.750Z,904.00
2022-09-24T07:07:29.785Z,896.00
2022-09-24T07:08:24.738Z,944.00
2022-09-24T07:09:24.717Z,984.00
2022-09-24T07:10:24.791Z,1088.00
2022-09-24T07:11:24.719Z,1208.00
2022-09-24T07:12:24.696Z,1344.00
2022-09-24T07:13:24.679Z,1492.00
2022-09-24T07:14:24.676Z,1588.00
2022-09-24T07:15:24.652Z,1728.00
2022-09-24T07:16:24.772Z,1872.00
2022-09-24T07:17:24.643Z,1968.00
2022-09-24T07:18:29.643Z,2008.00
2022-09-24T07:19:24.618Z,2040.00
2022-09-24T07:20:24.728Z,2076.00
2022-09-24T07:21:24.585Z,2108.00
2022-09-24T07:22:24.589Z,2048.00
2022-09-24T07:23:24.563Z,1892.00
2022-09-24T07:24:24.567Z,1800.00
2022-09-24T07:25:24.561Z,1644.00
2022-09-24T07:26:24.552Z,1576.00
2022-09-24T07:27:24.633Z,1600.00
2022-09-24T07:28:24.521Z,1660.00
2022-09-24T07:29:29.547Z,1700.00
2022-09-24T07:30:24.563Z,1628.00
2022-09-24T07:31:24.550Z,1564.00
2022-09-24T07:32:29.578Z,1428.00
2022-09-24T07:33:25.473Z,1388.00
2022-09-24T07:34:24.443Z,1404.00
2022-09-24T07:35:24.430Z,1492.00
2022-09-24T07:36:24.431Z,1520.00
2022-09-24T07:37:24.434Z,1520.00
2022-09-24T07:38:24.567Z,1620.00
2022-09-24T07:39:24.389Z,1736.00
2022-09-24T07:40:29.579Z,1988.00
2022-09-24T07:41:24.377Z,2148.00
2022-09-24T07:42:24.375Z,2300.00
2022-09-24T07:43:24.452Z,2520.00
2022-09-24T07:44:24.336Z,2872.00
2022-09-24T07:45:24.322Z,3900.00
2022-09-24T07:46:24.344Z,4616.00
2022-09-24T07:47:24.310Z,4828.00
2022-09-24T07:48:24.306Z,4364.00
2022-09-24T07:49:24.283Z,4228.00
2022-09-24T07:50:24.269Z,3508.00
2022-09-24T07:51:29.277Z,3168.00
2022-09-24T07:52:24.255Z,2860.00
2022-09-24T07:53:24.246Z,2612.00
2022-09-24T07:54:24.226Z,2368.00
2022-09-24T07:55:24.216Z,2204.00
2022-09-24T07:56:24.200Z,2072.00
2022-09-24T07:57:24.209Z,2052.00
2022-09-24T07:58:24.181Z,1896.00
2022-09-24T07:59:24.195Z,1868.00
2022-09-24T08:00:24.234Z,1892.00
2022-09-24T08:01:24.227Z,1980.00
2022-09-24T08:02:29.170Z,2088.00
2022-09-24T08:03:24.191Z,2532.00
2022-09-24T08:04:24.159Z,2332.00
2022-09-24T08:05:24.108Z,2824.00
2022-09-24T08:06:24.088Z,3232.00
2022-09-24T08:07:24.096Z,3612.00
2022-09-24T08:08:24.067Z,3796.00
2022-09-24T08:09:24.056Z,4612.00
2022-09-24T08:10:24.063Z,5004.00
2022-09-24T08:11:24.065Z,4596.00
2022-09-24T08:12:24.061Z,4044.00
2022-09-24T08:13:29.039Z,3596.00
2022-09-24T08:14:24.000Z,3604.00
2022-09-24T08:15:24.094Z,3548.00
2022-09-24T08:16:24.008Z,3612.00
2022-09-24T08:17:23.992Z,3532.00
2022-09-24T08:18:23.957Z,3360.00
2022-09-24T08:19:23.981Z,3212.00
2022-09-24T08:20:23.936Z,3116.00
2022-09-24T08:21:23.923Z,3184.00
2022-09-24T08:22:23.937Z,3236.00
2022-09-24T08:23:23.897Z,3232.00
2022-09-24T08:24:28.909Z,3144.00
2022-09-24T08:25:23.874Z,3020.00
2022-09-24T08:26:23.878Z,2960.00
2022-09-24T08:27:23.888Z,3032.00
2022-09-24T08:28:23.842Z,3224.00
2022-09-24T08:29:23.834Z,3448.00
2022-09-24T08:30:23.843Z,3640.00
2022-09-24T08:31:23.997Z,3596.00
2022-09-24T08:32:23.828Z,3400.00
2022-09-24T08:33:23.792Z,3376.00
2022-09-24T08:34:23.816Z,3376.00
2022-09-24T08:35:28.801Z,3712.00
2022-09-24T08:36:23.755Z,3984.00
2022-09-24T08:37:23.755Z,4076.00
2022-09-24T08:38:23.733Z,3956.00
2022-09-24T08:39:23.726Z,3824.00
2022-09-24T08:40:23.751Z,3796.00
2022-09-24T08:41:23.697Z,3748.00
2022-09-24T08:42:23.697Z,3832.00
2022-09-24T08:43:23.688Z,4020.00
2022-09-24T08:44:23.671Z,3916.00
2022-09-24T08:45:23.651Z,3728.00
2022-09-24T08:46:28.737Z,3520.00
2022-09-24T08:47:23.642Z,3344.00
2022-09-24T08:48:23.636Z,3220.00
2022-09-24T08:49:23.605Z,3196.00
2022-09-24T08:50:23.603Z,3268.00
2022-09-24T08:51:23.584Z,3344.00
2022-09-24T08:52:23.586Z,3400.00
2022-09-24T08:53:23.569Z,3420.00
2022-09-24T08:54:23.559Z,3424.00
2022-09-24T08:55:23.539Z,3428.00
2022-09-24T08:56:23.544Z,3396.00
2022-09-24T08:57:28.587Z,3396.00
2022-09-24T08:58:23.507Z,3460.00
2022-09-24T08:59:23.499Z,3492.00
2022-09-24T09:00:23.486Z,3484.00
2022-09-24T09:01:23.588Z,3416.00
2022-09-24T09:02:23.721Z,3312.00
2022-09-24T09:03:23.469Z,3304.00
2022-09-24T09:04:23.443Z,3316.00
2022-09-24T09:05:23.471Z,3320.00
2022-09-24T09:06:23.427Z,3184.00
2022-09-24T09:07:23.426Z,3116.00
2022-09-24T09:08:50.608Z,3272.00
2022-09-24T09:09:24.388Z,3524.00
2022-09-24T09:10:23.392Z,3740.00
2022-09-24T09:11:23.364Z,3952.00
2022-09-24T09:12:23.358Z,4216.00
2022-09-24T09:13:23.362Z,4412.00
2022-09-24T09:14:23.436Z,4552.00
2022-09-24T09:15:23.319Z,5080.00
2022-09-24T09:16:23.428Z,5556.00
2022-09-24T09:17:23.293Z,5432.00
2022-09-24T09:18:23.414Z,5024.00
2022-09-24T09:19:28.294Z,4892.00
2022-09-24T09:20:23.262Z,4728.00
2022-09-24T09:21:23.332Z,4348.00
2022-09-24T09:22:23.259Z,4204.00
2022-09-24T09:23:23.241Z,4064.00
2022-09-24T09:24:23.222Z,3752.00
2022-09-24T09:25:23.216Z,3548.00
2022-09-24T09:26:23.264Z,3652.00
2022-09-24T09:27:23.186Z,3948.00
2022-09-24T09:28:23.198Z,4112.00
2022-09-24T09:29:23.164Z,4092.00
2022-09-24T09:30:28.172Z,4064.00
2022-09-24T09:31:23.191Z,4156.00
2022-09-24T09:32:23.141Z,3768.00
2022-09-24T09:33:23.143Z,3568.00
2022-09-24T09:34:23.127Z,3596.00
2022-09-24T09:35:23.098Z,3604.00
2022-09-24T09:36:23.082Z,3292.00
2022-09-24T09:37:25.988Z,2704.00
2022-09-24T09:38:23.095Z,2432.00
2022-09-24T09:39:23.047Z,2296.00
2022-09-24T09:40:24.708Z,2284.00
2022-09-24T09:41:28.052Z,2080.00
2022-09-24T09:42:23.015Z,1848.00
2022-09-24T09:43:23.021Z,1660.00
2022-09-24T09:44:22.993Z,1672.00
2022-09-24T09:45:27.509Z,1692.00
2022-09-24T09:46:24.016Z,1844.00
2022-09-24T09:47:22.979Z,1952.00
2022-09-24T09:48:22.982Z,2072.00
2022-09-24T09:49:22.936Z,2192.00
2022-09-24T09:50:22.963Z,2056.00
2022-09-24T09:51:23.510Z,1892.00
2022-09-24T09:52:27.926Z,1836.00
2022-09-24T09:53:22.959Z,2020.00
2022-09-24T09:54:23.012Z,2464.00
2022-09-24T09:55:22.871Z,2980.00
2022-09-24T09:56:22.878Z,3580.00
2022-09-24T09:57:22.862Z,3720.00
2022-09-24T09:58:22.849Z,3972.00
2022-09-24T09:59:28.776Z,4196.00
2022-09-24T10:00:23.845Z,4208.00
2022-09-24T10:01:22.819Z,4320.00
2022-09-24T10:02:23.010Z,5544.00
2022-09-24T10:03:27.863Z,7524.00
2022-09-24T10:04:22.771Z,6640.00
2022-09-24T10:05:27.177Z,5860.00
2022-09-24T10:06:22.767Z,5396.00
2022-09-24T10:07:22.734Z,5752.00
2022-09-24T10:08:22.726Z,6404.00
2022-09-24T10:09:22.734Z,6380.00
2022-09-24T10:10:22.704Z,5556.00
2022-09-24T10:11:22.695Z,5408.00
2022-09-24T10:12:22.702Z,5360.00
2022-09-24T10:13:22.672Z,4780.00
2022-09-24T10:14:27.697Z,4212.00
2022-09-24T10:15:22.645Z,4148.00
2022-09-24T10:16:22.819Z,4760.00
2022-09-24T10:17:22.650Z,5736.00
2022-09-24T10:18:22.617Z,6572.00
2022-09-24T10:19:22.613Z,7064.00
2022-09-24T10:20:22.598Z,6800.00
2022-09-24T10:21:26.098Z,5844.00
2022-09-24T10:22:23.608Z,5180.00
2022-09-24T10:23:22.565Z,4904.00
2022-09-24T10:24:22.562Z,5096.00
2022-09-24T10:25:27.561Z,5216.00
2022-09-24T10:26:22.528Z,5140.00
2022-09-24T10:27:22.512Z,5540.00
2022-09-24T10:28:22.544Z,5700.00
2022-09-24T10:29:22.505Z,5608.00
2022-09-24T10:30:22.501Z,5688.00
2022-09-24T10:31:22.632Z,5912.00
2022-09-24T10:32:22.489Z,5648.00
2022-09-24T10:33:22.450Z,5260.00
2022-09-24T10:34:22.450Z,4896.00
2022-09-24T10:35:22.427Z,5436.00
2022-09-24T10:36:27.445Z,5880.00
2022-09-24T10:37:22.408Z,7964.00
2022-09-24T10:38:22.409Z,9000.00
2022-09-24T10:39:22.402Z,8756.00
2022-09-24T10:40:22.518Z,6224.00
2022-09-24T10:41:22.373Z,6008.00
2022-09-24T10:42:22.344Z,5972.00
2022-09-24T10:43:22.381Z,5924.00
2022-09-24T10:44:22.335Z,5308.00
2022-09-24T10:45:22.316Z,4900.00
2022-09-24T10:46:22.338Z,4852.00
2022-09-24T10:47:27.312Z,4800.00
2022-09-24T10:48:22.281Z,4732.00
2022-09-24T10:49:22.296Z,4704.00
2022-09-24T10:50:22.254Z,4724.00
2022-09-24T10:51:26.584Z,4744.00
2022-09-24T10:52:23.233Z,4868.00
2022-09-24T10:53:22.223Z,5228.00
2022-09-24T10:54:22.249Z,6052.00
2022-09-24T10:55:22.226Z,6920.00
2022-09-24T10:56:22.191Z,7080.00
2022-09-24T10:57:22.180Z,7000.00
2022-09-24T10:58:27.190Z,6872.00
2022-09-24T10:59:22.169Z,7312.00
2022-09-24T11:00:22.166Z,8000.00
2022-09-24T11:01:22.214Z,8680.00
2022-09-24T11:02:22.234Z,7512.00
2022-09-24T11:03:22.244Z,7076.00
2022-09-24T11:04:22.137Z,6692.00
2022-09-24T11:05:22.089Z,6348.00
2022-09-24T11:06:22.110Z,5848.00
2022-09-24T11:07:22.069Z,5632.00
2022-09-24T11:08:22.052Z,5548.00
2022-09-24T11:09:27.094Z,5896.00
2022-09-24T11:10:22.030Z,5732.00
2022-09-24T11:11:22.022Z,5844.00
2022-09-24T11:12:22.007Z,5816.00
2022-09-24T11:13:21.997Z,6308.00
2022-09-24T11:14:22.001Z,6756.00
2022-09-24T11:15:21.995Z,5780.00
2022-09-24T11:16:22.080Z,4528.00
2022-09-24T11:17:21.957Z,3924.00
2022-09-24T11:18:21.957Z,3700.00
2022-09-24T11:19:21.940Z,4184.00
2022-09-24T11:20:26.940Z,4580.00
2022-09-24T11:21:21.912Z,4496.00
2022-09-24T11:22:21.910Z,4012.00
2022-09-24T11:23:21.885Z,3648.00
2022-09-24T11:24:21.885Z,3124.00
2022-09-24T11:25:21.965Z,2308.00
2022-09-24T11:26:21.859Z,2052.00
2022-09-24T11:27:21.846Z,2032.00
2022-09-24T11:28:21.876Z,2132.00
2022-09-24T11:29:21.844Z,2248.00
2022-09-24T11:30:21.821Z,2704.00
2022-09-24T11:31:26.933Z,2924.00
2022-09-24T11:32:21.786Z,2832.00
2022-09-24T11:33:23.202Z,2836.00
2022-09-24T11:34:21.794Z,3008.00
2022-09-24T11:35:21.754Z,3364.00
2022-09-24T11:36:21.741Z,4700.00
2022-09-24T11:37:21.777Z,7164.00
2022-09-24T11:38:21.720Z,7764.00
2022-09-24T11:39:21.724Z,6420.00
2022-09-24T11:40:21.770Z,6380.00
2022-09-24T11:41:21.708Z,6444.00
2022-09-24T11:42:26.695Z,5940.00
2022-09-24T11:43:21.686Z,5064.00
2022-09-24T11:44:21.669Z,4420.00
2022-09-24T11:45:21.643Z,4680.00
2022-09-24T11:46:21.702Z,5080.00
2022-09-24T11:47:21.622Z,5412.00
2022-09-24T11:48:21.628Z,4860.00
2022-09-24T11:49:21.605Z,3764.00
2022-09-24T11:50:21.589Z,3248.00
2022-09-24T11:51:21.574Z,3200.00
2022-09-24T11:52:21.558Z,3404.00
2022-09-24T11:53:26.572Z,4020.00
2022-09-24T11:54:21.559Z,5248.00
2022-09-24T11:55:21.530Z,6288.00
2022-09-24T11:56:21.517Z,6580.00
2022-09-24T11:57:21.521Z,6808.00
2022-09-24T11:58:21.490Z,6952.00
2022-09-24T11:59:21.499Z,7728.00
2022-09-24T12:00:21.470Z,7860.00
2022-09-24T12:01:21.502Z,8108.00
2022-09-24T12:02:21.509Z,8168.00
2022-09-24T12:03:25.927Z,8180.00
2022-09-24T12:04:27.465Z,7432.00
2022-09-24T12:05:21.418Z,7480.00
2022-09-24T12:06:21.406Z,7696.00
2022-09-24T12:07:21.393Z,8016.00
2022-09-24T12:08:21.427Z,9236.00
2022-09-24T12:09:21.376Z,8416.00
2022-09-24T12:10:21.377Z,10576.00
2022-09-24T12:11:21.359Z,8708.00
2022-09-24T12:12:21.337Z,7688.00
2022-09-24T12:13:21.353Z,6912.00
2022-09-24T12:14:21.449Z,6716.00
2022-09-24T12:15:26.328Z,6780.00
2022-09-24T12:16:21.398Z,6756.00
2022-09-24T12:17:21.281Z,7256.00
2022-09-24T12:18:21.282Z,7604.00
2022-09-24T12:19:21.284Z,7404.00
2022-09-24T12:20:21.246Z,7616.00
2022-09-24T12:21:21.242Z,6108.00
2022-09-24T12:22:21.228Z,5696.00
2022-09-24T12:23:21.215Z,5644.00
2022-09-24T12:24:21.256Z,5596.00
2022-09-24T12:25:21.194Z,5812.00
2022-09-24T12:26:26.215Z,6620.00
2022-09-24T12:27:21.171Z,6284.00
2022-09-24T12:28:21.157Z,6452.00
2022-09-24T12:29:21.251Z,5932.00
2022-09-24T12:30:21.163Z,6008.00
2022-09-24T12:31:21.169Z,5588.00
2022-09-24T12:32:21.116Z,5496.00
2022-09-24T12:33:21.129Z,6096.00
2022-09-24T12:34:21.092Z,21888.00
2022-09-24T12:35:21.095Z,8336.00
2022-09-24T12:36:21.071Z,6048.00
2022-09-24T12:37:26.081Z,4800.00
2022-09-24T12:38:21.046Z,4144.00
2022-09-24T12:39:21.036Z,4004.00
2022-09-24T12:40:21.078Z,4052.00
2022-09-24T12:41:21.019Z,4520.00
2022-09-24T12:42:21.003Z,4892.00
2022-09-24T12:43:20.996Z,7288.00
2022-09-24T12:44:22.340Z,6632.00
2022-09-24T12:45:21.042Z,5572.00
2022-09-24T12:46:21.038Z,5320.00
2022-09-24T12:47:21.008Z,5444.00
2022-09-24T12:48:25.984Z,5444.00
2022-09-24T12:49:20.940Z,5508.00
2022-09-24T12:50:20.946Z,5588.00
2022-09-24T12:51:20.904Z,5732.00
2022-09-24T12:52:20.903Z,5696.00
2022-09-24T12:53:20.880Z,5352.00
2022-09-24T12:54:20.869Z,4828.00
2022-09-24T12:55:20.891Z,4440.00
2022-09-24T12:56:20.854Z,4264.00
2022-09-24T12:57:25.242Z,4040.00
2022-09-24T12:58:21.833Z,3752.00
2022-09-24T12:59:25.856Z,3404.00
2022-09-24T13:00:20.813Z,3176.00
2022-09-24T13:01:21.113Z,3084.00
2022-09-24T13:02:20.979Z,4188.00
2022-09-24T13:03:20.770Z,4624.00
2022-09-24T13:04:20.766Z,4920.00
2022-09-24T13:05:20.757Z,4832.00
2022-09-24T13:06:20.736Z,4504.00
2022-09-24T13:07:20.731Z,4092.00
2022-09-24T13:08:20.711Z,3928.00
2022-09-24T13:09:25.461Z,3920.00
2022-09-24T13:10:26.749Z,3776.00
2022-09-24T13:11:20.682Z,3696.00
2022-09-24T13:12:20.679Z,3444.00
2022-09-24T13:13:20.657Z,3312.00
2022-09-24T13:14:20.646Z,3280.00
2022-09-24T13:15:23.901Z,3328.00
2022-09-24T13:16:21.727Z,3372.00
2022-09-24T13:17:20.646Z,3328.00
2022-09-24T13:18:20.626Z,3404.00
2022-09-24T13:19:20.590Z,3672.00
2022-09-24T13:20:20.591Z,3780.00
2022-09-24T13:21:25.594Z,3708.00
2022-09-24T13:22:20.557Z,3560.00
2022-09-24T13:23:20.545Z,3540.00
2022-09-24T13:24:20.536Z,3560.00
2022-09-24T13:25:20.534Z,3800.00
2022-09-24T13:26:20.511Z,4064.00
2022-09-24T13:27:20.504Z,4360.00
2022-09-24T13:28:20.494Z,4656.00
2022-09-24T13:29:20.496Z,5184.00
2022-09-24T13:30:20.476Z,5340.00
2022-09-24T13:31:20.481Z,4996.00
2022-09-24T13:32:25.526Z,4464.00
2022-09-24T13:33:20.435Z,3912.00
2022-09-24T13:34:20.424Z,3600.00
2022-09-24T13:35:22.277Z,3256.00
2022-09-24T13:36:20.415Z,2776.00
2022-09-24T13:37:20.397Z,2828.00
2022-09-24T13:38:20.378Z,3488.00
2022-09-24T13:39:20.399Z,3576.00
2022-09-24T13:40:20.445Z,3376.00
2022-09-24T13:41:20.346Z,3368.00
2022-09-24T13:42:20.341Z,3384.00
2022-09-24T13:43:25.347Z,3316.00
2022-09-24T13:44:20.311Z,3272.00
2022-09-24T13:45:20.316Z,3308.00
2022-09-24T13:46:20.394Z,3372.00
2022-09-24T13:47:20.278Z,3660.00
2022-09-24T13:48:20.285Z,4020.00
2022-09-24T13:49:20.268Z,4092.00
2022-09-24T13:50:20.256Z,4184.00
2022-09-24T13:51:20.243Z,4368.00
2022-09-24T13:52:20.223Z,4404.00
2022-09-24T13:53:20.218Z,4464.00
2022-09-24T13:54:25.224Z,4312.00
2022-09-24T13:55:20.207Z,4168.00
2022-09-24T13:56:20.180Z,3948.00
2022-09-24T13:57:20.167Z,3848.00
2022-09-24T13:58:20.154Z,3556.00
2022-09-24T13:59:20.145Z,3352.00
2022-09-24T14:00:20.224Z,3080.00
2022-09-24T14:01:20.196Z,2820.00
2022-09-24T14:02:20.340Z,2580.00
2022-09-24T14:03:20.181Z,2420.00
2022-09-24T14:04:20.108Z,2368.00
2022-09-24T14:05:25.104Z,2508.00
2022-09-24T14:06:20.096Z,2664.00
2022-09-24T14:07:20.061Z,2708.00
2022-09-24T14:08:20.054Z,2728.00
2022-09-24T14:09:20.034Z,2712.00
2022-09-24T14:10:20.022Z,2748.00
2022-09-24T14:11:20.031Z,2760.00
2022-09-24T14:12:20.020Z,2848.00
2022-09-24T14:13:19.993Z,2892.00
2022-09-24T14:14:19.984Z,2956.00
2022-09-24T14:15:19.972Z,2968.00
2022-09-24T14:16:25.049Z,2980.00
2022-09-24T14:17:19.946Z,3072.00
2022-09-24T14:18:19.958Z,3236.00
2022-09-24T14:19:19.937Z,3296.00
2022-09-24T14:20:19.950Z,3412.00
2022-09-24T14:21:19.918Z,3420.00
2022-09-24T14:22:19.904Z,3428.00
2022-09-24T14:23:19.895Z,3196.00
2022-09-24T14:24:19.867Z,3112.00
2022-09-24T14:25:19.855Z,3216.00
2022-09-24T14:26:19.882Z,3048.00
2022-09-24T14:27:24.860Z,3028.00
2022-09-24T14:28:20.201Z,3056.00
2022-09-24T14:29:19.811Z,3140.00
2022-09-24T14:30:19.826Z,3164.00
2022-09-24T14:31:19.846Z,3320.00
2022-09-24T14:32:19.777Z,2996.00
2022-09-24T14:33:19.770Z,2636.00
2022-09-24T14:34:19.760Z,2360.00
2022-09-24T14:35:19.742Z,2040.00
2022-09-24T14:36:19.770Z,1792.00
2022-09-24T14:37:19.730Z,1676.00
2022-09-24T14:38:24.731Z,1648.00
2022-09-24T14:39:19.703Z,1692.00
2022-09-24T14:40:19.770Z,1700.00
2022-09-24T14:41:19.689Z,1716.00
2022-09-24T14:42:19.663Z,1692.00
2022-09-24T14:43:19.666Z,1748.00
2022-09-24T14:44:19.664Z,1880.00
2022-09-24T14:45:19.637Z,2000.00
2022-09-24T14:46:19.698Z,2064.00
2022-09-24T14:47:19.646Z,2116.00
2022-09-24T14:48:19.612Z,2120.00
2022-09-24T14:49:24.659Z,2092.00
2022-09-24T14:50:19.575Z,1964.00
2022-09-24T14:51:19.576Z,1828.00
2022-09-24T14:52:19.576Z,1796.00
2022-09-24T14:53:19.571Z,1736.00
2022-09-24T14:54:19.548Z,1644.00
2022-09-24T14:55:19.523Z,1648.00
2022-09-24T14:56:19.529Z,1604.00
2022-09-24T14:57:19.497Z,1612.00
2022-09-24T14:58:19.484Z,1616.00
2022-09-24T14:59:19.476Z,1592.00
2022-09-24T15:00:24.501Z,1524.00
2022-09-24T15:01:19.557Z,1456.00
2022-09-24T15:02:19.762Z,1404.00
2022-09-24T15:03:19.431Z,1364.00
2022-09-24T15:04:19.507Z,1352.00
2022-09-24T15:05:19.587Z,1436.00
2022-09-24T15:06:19.417Z,1484.00
2022-09-24T15:07:19.381Z,1512.00
2022-09-24T15:08:19.491Z,1544.00
2022-09-24T15:09:19.361Z,1576.00
2022-09-24T15:10:19.353Z,1572.00
2022-09-24T15:11:24.393Z,1536.00
2022-09-24T15:12:19.327Z,1528.00
2022-09-24T15:13:19.314Z,1572.00
2022-09-24T15:14:19.305Z,1572.00
2022-09-24T15:15:19.295Z,1564.00
2022-09-24T15:16:19.380Z,1664.00
2022-09-24T15:17:19.277Z,1728.00
2022-09-24T15:18:19.295Z,1808.00
2022-09-24T15:19:19.320Z,1792.00
2022-09-24T15:20:19.239Z,1744.00
2022-09-24T15:21:19.241Z,1840.00
2022-09-24T15:22:24.242Z,1840.00
2022-09-24T15:23:19.202Z,1904.00
2022-09-24T15:24:20.243Z,1936.00
2022-09-24T15:25:19.205Z,1984.00
2022-09-24T15:26:19.182Z,1948.00
2022-09-24T15:27:19.215Z,1748.00
2022-09-24T15:28:19.149Z,1696.00
2022-09-24T15:29:19.149Z,1692.00
2022-09-24T15:30:19.140Z,1696.00
2022-09-24T15:31:19.202Z,1636.00
2022-09-24T15:32:19.160Z,1484.00
2022-09-24T15:33:24.111Z,1340.00
2022-09-24T15:34:20.077Z,1256.00
2022-09-24T15:35:19.066Z,1240.00
2022-09-24T15:36:19.195Z,1296.00
2022-09-24T15:37:19.126Z,1408.00
2022-09-24T15:38:19.043Z,1520.00
2022-09-24T15:39:19.022Z,1564.00
2022-09-24T15:40:19.134Z,1672.00
2022-09-24T15:41:19.032Z,1696.00
2022-09-24T15:42:19.027Z,1584.00
2022-09-24T15:43:19.073Z,1368.00
2022-09-24T15:44:26.146Z,1124.00
2022-09-24T15:45:18.958Z,924.00
2022-09-24T15:46:19.003Z,776.00
2022-09-24T15:47:18.933Z,688.00
2022-09-24T15:48:18.938Z,620.00
2022-09-24T15:49:18.909Z,568.00
2022-09-24T15:50:18.930Z,516.00
2022-09-24T15:51:18.907Z,468.00
2022-09-24T15:52:18.877Z,436.00
2022-09-24T15:53:18.868Z,424.00
2022-09-24T15:54:18.853Z,412.00
2022-09-24T15:55:23.969Z,412.00
2022-09-24T15:56:18.841Z,412.00
2022-09-24T15:57:18.823Z,400.00
2022-09-24T15:58:19.755Z,392.00
2022-09-24T15:59:18.802Z,376.00
2022-09-24T16:00:18.791Z,372.00
2022-09-24T16:01:18.947Z,356.00
2022-09-24T16:02:18.845Z,344.00
2022-09-24T16:03:18.840Z,352.00
2022-09-24T16:04:18.748Z,360.00
2022-09-24T16:05:18.731Z,368.00
2022-09-24T16:06:23.782Z,360.00
2022-09-24T16:07:18.704Z,364.00
2022-09-24T16:08:18.695Z,368.00
2022-09-24T16:09:18.705Z,352.00
2022-09-24T16:10:18.716Z,320.00
2022-09-24T16:11:18.770Z,308.00
2022-09-24T16:12:18.664Z,304.00
2022-09-24T16:13:18.649Z,296.00
2022-09-24T16:14:18.632Z,296.00
2022-09-24T16:15:18.618Z,288.00
2022-09-24T16:16:18.639Z,288.00